Time;durP1;ratioP1;P1;durP2;ratioP2;P2;SDS_P1;SDS_P2;PMS_P1;PMS_P2;Temp;Humidity;BMP_temperature;BMP_pressure;BME280_temperature;BME280_humidity;BME280_pressure;Samples;Min_cycle;Max_cycle;Signal;HPM_P1;HPM_P2
2021/07/16 00:01:49;;;;;;;3.73;3.23;;;16.50;99.90;;;;;;5056890;28;20181;-56
2021/07/16 00:04:15;;;;;;;3.37;3.07;;;16.50;99.90;;;;;;5060945;28;20209;-55
2021/07/16 00:06:40;;;;;;;3.80;3.50;;;16.60;99.90;;;;;;5057137;28;20240;-55
2021/07/16 00:09:06;;;;;;;3.63;3.33;;;16.60;99.90;;;;;;5069571;28;20204;-55
2021/07/16 00:11:33;;;;;;;4.13;3.72;;;16.30;99.90;;;;;;5057284;28;20178;-55
2021/07/16 00:13:58;;;;;;;3.97;3.50;;;16.30;99.90;;;;;;5059708;28;20182;-56
2021/07/16 00:16:24;;;;;;;5.00;3.37;;;16.50;99.90;;;;;;5053292;28;20187;-56
2021/07/16 00:18:49;;;;;;;3.57;2.90;;;16.60;99.90;;;;;;5061488;28;20257;-55
2021/07/16 00:21:16;;;;;;;4.03;3.70;;;16.30;99.90;;;;;;5062969;28;20185;-55
2021/07/16 00:23:42;;;;;;;4.22;3.88;;;16.20;99.90;;;;;;5068363;28;20245;-55
2021/07/16 00:26:08;;;;;;;4.20;3.90;;;15.90;99.90;;;;;;5063404;28;20213;-56
2021/07/16 00:28:34;;;;;;;4.28;3.53;;;16.40;99.90;;;;;;5063424;28;20177;-55
2021/07/16 00:30:59;;;;;;;5.00;4.60;;;16.30;99.90;;;;;;5066573;28;20575;-55
2021/07/16 00:33:25;;;;;;;4.50;4.10;;;16.20;99.90;;;;;;5060360;28;20200;-55
2021/07/16 00:35:51;;;;;;;5.33;4.03;;;16.30;99.90;;;;;;5061408;28;20557;-56
2021/07/16 00:38:16;;;;;;;3.90;3.57;;;16.20;99.90;;;;;;5053592;28;20177;-56
2021/07/16 00:40:42;;;;;;;4.23;3.90;;;16.20;99.90;;;;;;5052997;28;20243;-56
2021/07/16 00:43:08;;;;;;;3.87;3.50;;;16.00;99.90;;;;;;5061009;28;20658;-55
2021/07/16 00:45:34;;;;;;;3.53;3.25;;;16.10;99.90;;;;;;5059474;28;20444;-55
2021/07/16 00:48:00;;;;;;;4.57;4.20;;;16.10;99.90;;;;;;5068414;28;20646;-55
2021/07/16 00:50:34;;;;;;;4.00;3.70;;;15.90;99.90;;;;;;5064625;28;20242;-56
2021/07/16 00:53:01;;;;;;;4.60;4.20;;;15.90;99.90;;;;;;5058486;28;20514;-55
2021/07/16 00:55:27;;;;;;;4.20;3.80;;;16.00;99.90;;;;;;5059062;28;20173;-56
2021/07/16 00:57:54;;;;;;;4.45;3.80;;;16.00;99.90;;;;;;5058765;28;20557;-56
2021/07/16 01:00:20;;;;;;;3.45;3.15;;;15.90;99.90;;;;;;5056112;28;20262;-55
2021/07/16 01:02:47;;;;;;;4.13;3.67;;;16.00;99.90;;;;;;5060559;28;20192;-55
2021/07/16 01:05:16;;;;;;;3.70;3.40;;;16.00;99.90;;;;;;5060723;28;20239;-55
2021/07/16 01:07:42;;;;;;;3.60;3.30;;;16.20;99.90;;;;;;5067370;28;20201;-55
2021/07/16 01:10:09;;;;;;;3.92;3.10;;;16.10;99.90;;;;;;5065129;28;20350;-56
2021/07/16 01:12:37;;;;;;;3.28;3.00;;;16.10;99.90;;;;;;5056511;28;20537;-55
2021/07/16 01:15:04;;;;;;;3.42;3.20;;;16.00;99.90;;;;;;5057910;28;20185;-55
2021/07/16 01:17:33;;;;;;;3.67;3.38;;;16.10;99.90;;;;;;5061823;28;20173;-58
2021/07/16 01:20:09;;;;;;;5.57;3.10;;;16.00;99.90;;;;;;5065044;28;20196;-58
2021/07/16 01:22:37;;;;;;;3.58;3.28;;;15.80;99.90;;;;;;5062975;28;20185;-58
2021/07/16 01:25:07;;;;;;;3.97;3.67;;;15.80;99.90;;;;;;5065793;28;20189;-59
2021/07/16 01:27:34;;;;;;;2.85;2.65;;;15.90;99.90;;;;;;5061280;28;20197;-56
2021/07/16 01:30:01;;;;;;;3.97;3.10;;;16.00;99.90;;;;;;5065180;28;20604;-55
2021/07/16 01:32:27;;;;;;;3.15;2.95;;;16.00;99.90;;;;;;5056735;28;20185;-56
2021/07/16 01:34:53;;;;;;;3.22;2.92;;;16.00;99.90;;;;;;5063171;28;20200;-56
2021/07/16 01:37:20;;;;;;;3.20;2.90;;;16.20;99.90;;;;;;5057288;28;20268;-55
2021/07/16 01:39:46;;;;;;;3.47;3.17;;;16.20;99.90;;;;;;5061481;28;20239;-55
2021/07/16 01:42:12;;;;;;;3.90;3.27;;;15.80;99.90;;;;;;5060973;28;20186;-55
2021/07/16 01:44:40;;;;;;;3.08;2.83;;;16.30;99.90;;;;;;5057095;28;20253;-55
2021/07/16 01:47:06;;;;;;;2.58;2.38;;;16.30;99.90;;;;;;5058092;28;20205;-58
2021/07/16 01:49:31;;;;;;;3.47;3.17;;;16.20;99.90;;;;;;5058100;28;20197;-58
2021/07/16 01:51:58;;;;;;;3.17;2.93;;;16.10;99.90;;;;;;5065420;28;20200;-58
2021/07/16 01:54:23;;;;;;;3.38;3.17;;;16.10;99.90;;;;;;5068126;28;20300;-56
2021/07/16 01:56:50;;;;;;;3.10;2.80;;;16.10;99.90;;;;;;5062734;28;20710;-56
2021/07/16 01:59:16;;;;;;;2.90;2.70;;;16.00;99.90;;;;;;5056923;28;20233;-55
2021/07/16 02:01:41;;;;;;;3.37;2.90;;;16.00;99.90;;;;;;5062472;28;20236;-55
2021/07/16 02:04:08;;;;;;;3.33;3.00;;;15.90;99.90;;;;;;5061909;28;20512;-56
2021/07/16 02:06:34;;;;;;;3.17;2.97;;;16.10;99.90;;;;;;5063773;28;20209;-55
2021/07/16 02:09:00;;;;;;;3.20;3.00;;;16.10;99.90;;;;;;5073719;28;20180;-56
2021/07/16 02:11:28;;;;;;;3.28;2.97;;;16.10;99.90;;;;;;5069032;28;20650;-56
2021/07/16 02:13:53;;;;;;;4.10;3.20;;;16.00;99.90;;;;;;5072098;28;20223;-56
2021/07/16 02:16:19;;;;;;;3.13;2.93;;;16.00;99.90;;;;;;5066849;28;20172;-55
2021/07/16 02:18:52;;;;;;;3.33;3.03;;;15.90;99.90;;;;;;5058136;28;20185;-56
2021/07/16 02:21:19;;;;;;;3.17;2.85;;;15.90;99.90;;;;;;5071714;28;20181;-56
2021/07/16 02:23:47;;;;;;;3.97;3.05;;;15.90;99.90;;;;;;5072018;28;20188;-55
2021/07/16 02:26:13;;;;;;;2.90;2.70;;;15.80;99.90;;;;;;5058269;28;20197;-56
2021/07/16 02:28:39;;;;;;;3.50;2.93;;;16.00;99.90;;;;;;5066435;28;20654;-57
2021/07/16 02:31:07;;;;;;;4.53;3.30;;;16.00;99.90;;;;;;5071407;28;20202;-56
2021/07/16 02:33:33;;;;;;;3.28;3.05;;;16.00;99.90;;;;;;5061575;28;20174;-56
2021/07/16 02:36:00;;;;;;;3.80;3.50;;;16.10;99.90;;;;;;5072406;28;20184;-56
2021/07/16 02:38:26;;;;;;;3.53;3.22;;;15.80;99.90;;;;;;5070209;28;20181;-56
2021/07/16 02:40:53;;;;;;;3.60;3.30;;;16.00;99.90;;;;;;5071919;28;20200;-56
2021/07/16 02:43:19;;;;;;;3.80;3.42;;;15.80;99.90;;;;;;5071811;28;20187;-56
2021/07/16 02:45:45;;;;;;;3.38;3.00;;;15.80;99.90;;;;;;5063384;28;20203;-56
2021/07/16 02:48:12;;;;;;;3.67;3.03;;;16.10;99.90;;;;;;5059889;28;20181;-56
2021/07/16 02:50:43;;;;;;;3.83;2.97;;;15.80;99.90;;;;;;5064787;28;20197;-55
2021/07/16 02:53:10;;;;;;;3.53;3.20;;;16.00;99.90;;;;;;5066765;28;20188;-56
2021/07/16 02:55:37;;;;;;;3.63;3.30;;;16.10;99.90;;;;;;5063310;28;20184;-56
2021/07/16 02:58:03;;;;;;;4.82;3.10;;;16.00;99.90;;;;;;5066166;28;20546;-56
2021/07/16 03:00:29;;;;;;;4.07;3.40;;;16.00;99.90;;;;;;5064140;28;20208;-56
2021/07/16 03:02:56;;;;;;;3.63;3.25;;;16.00;99.90;;;;;;5063685;28;20188;-56
2021/07/16 03:05:24;;;;;;;5.57;3.45;;;16.10;99.90;;;;;;5061141;28;20507;-56
2021/07/16 03:07:51;;;;;;;4.15;3.30;;;16.10;99.90;;;;;;5057770;28;20255;-56
2021/07/16 03:10:26;;;;;;;4.00;3.70;;;16.10;99.90;;;;;;5063270;28;20193;-56
2021/07/16 03:12:54;;;;;;;3.88;3.40;;;16.30;99.90;;;;;;5064645;28;20173;-56
2021/07/16 03:15:22;;;;;;;4.80;3.70;;;16.20;99.90;;;;;;5066140;28;20184;-56
2021/07/16 03:17:48;;;;;;;3.53;3.22;;;16.10;99.90;;;;;;5069105;28;20192;-56
2021/07/16 03:20:20;;;;;;;3.95;3.65;;;16.00;99.90;;;;;;5060679;28;20201;-56
2021/07/16 03:22:46;;;;;;;4.57;4.07;;;15.90;99.90;;;;;;5061969;28;20196;-56
2021/07/16 03:25:14;;;;;;;4.07;3.35;;;15.90;99.90;;;;;;5060346;28;20177;-56
2021/07/16 03:27:40;;;;;;;3.53;3.33;;;16.10;99.90;;;;;;5056717;28;20209;-56
2021/07/16 03:30:11;;;;;;;3.53;3.27;;;15.80;99.90;;;;;;5062679;28;20733;-56
2021/07/16 03:32:37;;;;;;;4.18;3.78;;;16.10;99.90;;;;;;5058992;28;20481;-56
2021/07/16 03:35:04;;;;;;;4.13;3.83;;;16.10;99.90;;;;;;5063816;28;20236;-56
2021/07/16 03:37:30;;;;;;;3.88;3.58;;;16.20;99.90;;;;;;5065920;28;20656;-56
2021/07/16 03:39:56;;;;;;;4.20;3.80;;;16.00;99.90;;;;;;5064247;28;20296;-56
2021/07/16 03:42:21;;;;;;;3.97;3.67;;;16.10;99.90;;;;;;5067278;28;20546;-56
2021/07/16 03:44:47;;;;;;;3.97;3.67;;;16.20;99.90;;;;;;5066000;28;20439;-55
2021/07/16 03:47:14;;;;;;;3.58;3.30;;;16.10;99.90;;;;;;5069377;28;20454;-55
2021/07/16 03:49:40;;;;;;;4.45;4.05;;;16.10;99.90;;;;;;5062572;28;20204;-56
2021/07/16 03:52:07;;;;;;;5.82;4.43;;;16.00;99.90;;;;;;5057078;28;20260;-56
2021/07/16 03:54:34;;;;;;;5.20;3.80;;;15.90;99.90;;;;;;5061572;28;20524;-56
2021/07/16 03:57:00;;;;;;;3.90;3.50;;;15.90;99.90;;;;;;5063572;28;20541;-56
2021/07/16 03:59:26;;;;;;;5.20;4.80;;;16.10;99.90;;;;;;5064731;28;20210;-56
2021/07/16 04:01:52;;;;;;;5.00;4.27;;;16.10;99.90;;;;;;5058045;28;20432;-56
2021/07/16 04:04:18;;;;;;;3.88;3.58;;;16.20;99.90;;;;;;5058852;28;20432;-56
2021/07/16 04:06:51;;;;;;;4.70;4.07;;;16.00;99.90;;;;;;5061305;28;20551;-56
2021/07/16 04:12:05;;;;;;;4.18;3.78;;;16.30;99.90;;;;;;5063225;28;20271;-56
2021/07/16 04:14:35;;;;;;;4.47;4.07;;;16.40;99.90;;;;;;5063768;28;20184;-56
2021/07/16 04:17:03;;;;;;;4.22;3.92;;;16.40;99.90;;;;;;5062429;28;20802;-56
2021/07/16 04:19:28;;;;;;;4.05;3.75;;;16.20;99.90;;;;;;5061264;28;20217;-56
2021/07/16 04:21:54;;;;;;;5.47;4.50;;;16.20;99.90;;;;;;5056362;28;20224;-56
2021/07/16 04:24:19;;;;;;;3.80;3.50;;;16.40;99.90;;;;;;5060957;28;20784;-55
2021/07/16 04:26:45;;;;;;;4.17;3.67;;;16.10;99.90;;;;;;5061148;28;20308;-56
2021/07/16 04:29:11;;;;;;;4.60;3.87;;;16.10;99.90;;;;;;5063579;28;20236;-57
2021/07/16 04:31:36;;;;;;;4.43;4.10;;;16.30;99.90;;;;;;5058639;28;20192;-56
2021/07/16 04:34:03;;;;;;;4.07;3.77;;;16.60;99.90;;;;;;5062823;28;20276;-57
2021/07/16 04:36:29;;;;;;;4.45;4.05;;;16.30;99.90;;;;;;5052510;28;20189;-56
2021/07/16 04:38:54;;;;;;;5.50;4.43;;;16.30;99.90;;;;;;5059717;28;20176;-55
2021/07/16 04:41:20;;;;;;;5.90;4.60;;;16.30;99.90;;;;;;5056327;28;20191;-57
2021/07/16 04:43:45;;;;;;;7.67;4.80;;;16.60;99.90;;;;;;5059216;28;20292;-57
2021/07/16 04:46:14;;;;;;;4.27;3.97;;;16.40;99.90;;;;;;5064817;28;20204;-57
2021/07/16 04:48:40;;;;;;;4.97;4.45;;;16.60;99.90;;;;;;5063970;28;20209;-57
2021/07/16 04:51:05;;;;;;;4.77;4.37;;;16.60;99.90;;;;;;5059168;28;20228;-58
2021/07/16 04:53:31;;;;;;;4.90;4.50;;;16.80;99.90;;;;;;5061185;28;20231;-57
2021/07/16 04:55:57;;;;;;;4.80;4.20;;;16.80;99.90;;;;;;5050660;28;20185;-58
2021/07/16 04:58:22;;;;;;;5.03;4.53;;;16.50;99.90;;;;;;5058492;28;20178;-57
2021/07/16 05:00:48;;;;;;;5.47;4.70;;;16.70;99.90;;;;;;5053320;28;20209;-56
2021/07/16 05:03:14;;;;;;;4.83;4.43;;;16.60;99.90;;;;;;5057430;28;20212;-58
2021/07/16 05:05:39;;;;;;;4.77;4.43;;;16.90;99.90;;;;;;5057338;28;20182;-57
2021/07/16 05:08:05;;;;;;;5.00;4.60;;;16.80;99.90;;;;;;5060047;28;20213;-56
2021/07/16 05:10:34;;;;;;;5.37;4.97;;;17.00;99.90;;;;;;5059116;28;20564;-56
2021/07/16 05:12:59;;;;;;;5.70;5.20;;;16.80;99.90;;;;;;5055330;28;20493;-57
2021/07/16 05:15:31;;;;;;;5.13;4.73;;;16.90;99.90;;;;;;5057895;28;20180;-57
2021/07/16 05:17:56;;;;;;;6.20;5.70;;;17.20;99.90;;;;;;5054566;28;20184;-57
2021/07/16 05:20:22;;;;;;;6.23;5.53;;;17.20;99.90;;;;;;5061288;28;20196;-57
2021/07/16 05:22:49;;;;;;;9.60;6.90;;;17.50;99.90;;;;;;5053433;28;20188;-57
2021/07/16 05:25:15;;;;;;;7.30;6.45;;;17.40;99.90;;;;;;5067202;28;20217;-58
2021/07/16 05:27:41;;;;;;;7.87;7.07;;;17.60;99.90;;;;;;5062966;28;20666;-56
2021/07/16 05:30:07;;;;;;;8.47;7.63;;;17.50;99.90;;;;;;5061437;28;20192;-57
2021/07/16 05:32:32;;;;;;;9.95;9.05;;;17.70;99.90;;;;;;5059779;28;20547;-57
2021/07/16 05:34:58;;;;;;;8.93;8.03;;;17.80;99.90;;;;;;5061324;28;20189;-57
2021/07/16 05:37:24;;;;;;;8.50;7.70;;;17.90;99.90;;;;;;5064984;28;20210;-57
2021/07/16 05:39:49;;;;;;;9.33;8.40;;;17.70;99.90;;;;;;5062146;28;20568;-56
2021/07/16 05:42:15;;;;;;;9.53;7.80;;;17.70;99.90;;;;;;5051447;28;20178;-56
2021/07/16 05:44:41;;;;;;;9.50;8.60;;;17.80;99.90;;;;;;5054667;28;20614;-57
2021/07/16 05:47:06;;;;;;;9.97;8.97;;;17.90;99.90;;;;;;5056771;28;20204;-56
2021/07/16 05:49:32;;;;;;;8.90;8.03;;;18.10;99.90;;;;;;5063613;28;20255;-56
2021/07/16 05:51:58;;;;;;;9.03;7.90;;;18.20;99.90;;;;;;5053760;28;20179;-62
2021/07/16 05:54:23;;;;;;;9.20;8.30;;;18.40;99.90;;;;;;5058463;28;20396;-56
2021/07/16 05:56:50;;;;;;;8.97;8.17;;;18.50;99.90;;;;;;5054515;28;20612;-56
2021/07/16 05:59:15;;;;;;;9.40;8.43;;;18.60;99.90;;;;;;5060056;28;20693;-58
2021/07/16 06:01:41;;;;;;;9.67;8.67;;;18.60;99.90;;;;;;5061036;28;20235;-59
2021/07/16 06:04:09;;;;;;;10.20;9.10;;;18.60;99.90;;;;;;5061953;28;20185;-59
2021/07/16 06:06:36;;;;;;;9.27;8.32;;;18.70;99.90;;;;;;5058116;28;21308;-58
2021/07/16 06:09:03;;;;;;;12.93;9.70;;;19.00;99.90;;;;;;5066436;28;20227;-59
2021/07/16 06:11:29;;;;;;;11.63;9.80;;;19.00;99.90;;;;;;5082656;28;20189;-58
2021/07/16 06:13:54;;;;;;;10.80;9.80;;;19.00;99.90;;;;;;5061849;28;20181;-58
2021/07/16 06:16:20;;;;;;;12.03;9.00;;;19.10;99.90;;;;;;5053624;28;20177;-58
2021/07/16 06:18:45;;;;;;;9.47;8.53;;;19.20;99.90;;;;;;5065624;28;20193;-56
2021/07/16 06:21:11;;;;;;;9.37;8.47;;;19.20;99.90;;;;;;5057660;28;20677;-57
2021/07/16 06:23:37;;;;;;;10.23;9.30;;;19.30;99.90;;;;;;5050486;28;20184;-57
2021/07/16 06:26:02;;;;;;;9.77;8.90;;;19.00;99.90;;;;;;5054706;28;20608;-57
2021/07/16 06:28:28;;;;;;;9.80;8.90;;;19.10;99.90;;;;;;5056801;28;20663;-59
2021/07/16 06:30:54;;;;;;;9.20;8.30;;;19.20;99.90;;;;;;5056672;28;20714;-57
2021/07/16 06:33:19;;;;;;;10.70;9.27;;;19.10;99.90;;;;;;5061388;28;20262;-56
2021/07/16 06:35:46;;;;;;;12.10;10.90;;;19.10;99.90;;;;;;5063507;28;20199;-58
2021/07/16 06:38:12;;;;;;;10.60;9.73;;;19.20;99.90;;;;;;5060177;28;20264;-57
2021/07/16 06:40:37;;;;;;;9.30;8.40;;;19.20;99.90;;;;;;5062763;28;20797;-58
2021/07/16 06:43:09;;;;;;;10.40;9.33;;;19.20;99.90;;;;;;5062841;28;20196;-58
2021/07/16 06:45:36;;;;;;;10.45;9.45;;;19.10;99.90;;;;;;5067935;28;20184;-58
2021/07/16 06:48:01;;;;;;;9.63;8.70;;;19.00;99.90;;;;;;5069844;28;20206;-58
2021/07/16 06:50:27;;;;;;;10.03;9.13;;;19.20;99.90;;;;;;5061088;28;20194;-57
2021/07/16 06:52:52;;;;;;;11.93;9.20;;;19.30;99.90;;;;;;5057120;28;20215;-56
2021/07/16 06:55:18;;;;;;;11.03;10.00;;;19.60;99.90;;;;;;5061710;28;20177;-56
2021/07/16 06:57:44;;;;;;;11.57;10.53;;;20.10;99.90;;;;;;5052218;28;20211;-57
2021/07/16 07:00:10;;;;;;;9.70;8.23;;;20.60;99.90;;;;;;5058241;28;20255;-57
2021/07/16 07:02:35;;;;;;;9.18;8.35;;;20.90;99.90;;;;;;5063033;28;20208;-57
2021/07/16 07:05:05;;;;;;;9.93;9.00;;;20.90;99.90;;;;;;5064606;28;20284;-57
2021/07/16 07:07:31;;;;;;;8.18;7.30;;;20.80;99.90;;;;;;5063822;28;20306;-57
2021/07/16 07:09:57;;;;;;;9.40;8.33;;;20.80;99.90;;;;;;5065430;28;20299;-57
2021/07/16 07:12:22;;;;;;;10.00;9.00;;;20.80;99.90;;;;;;5059977;28;20797;-57
2021/07/16 07:14:48;;;;;;;10.00;8.97;;;20.70;99.90;;;;;;5066094;28;20234;-57
2021/07/16 07:17:14;;;;;;;9.47;8.67;;;20.80;99.90;;;;;;5059872;28;20185;-56
2021/07/16 07:19:39;;;;;;;9.57;8.70;;;20.80;99.90;;;;;;5058743;28;20631;-57
2021/07/16 07:22:05;;;;;;;9.20;8.30;;;20.80;99.90;;;;;;5066534;28;20219;-57
2021/07/16 07:24:31;;;;;;;9.50;8.70;;;20.70;99.90;;;;;;5069777;28;20795;-57
2021/07/16 07:26:57;;;;;;;9.43;8.53;;;20.40;99.90;;;;;;5061914;28;20232;-57
2021/07/16 07:29:24;;;;;;;10.40;9.60;;;20.30;99.90;;;;;;5064647;28;20197;-56
2021/07/16 07:31:50;;;;;;;10.10;9.30;;;20.30;99.90;;;;;;5062377;28;20264;-57
2021/07/16 07:34:16;;;;;;;9.60;8.80;;;20.20;99.90;;;;;;5059956;28;20630;-56
2021/07/16 07:36:47;;;;;;;10.27;9.47;;;20.30;99.90;;;;;;5061018;28;20431;-57
2021/07/16 07:39:17;;;;;;;10.00;9.00;;;20.10;99.90;;;;;;5087107;28;20233;-58
2021/07/16 07:41:45;;;;;;;9.73;8.80;;;20.00;99.90;;;;;;5061732;28;20247;-57
2021/07/16 07:44:15;;;;;;;9.40;8.60;;;20.10;99.90;;;;;;5064649;28;20539;-56
2021/07/16 07:46:42;;;;;;;8.95;8.15;;;19.90;99.90;;;;;;5061190;28;20197;-57
2021/07/16 07:49:10;;;;;;;9.90;9.00;;;20.00;99.90;;;;;;5058203;28;20193;-57
2021/07/16 07:51:37;;;;;;;10.25;9.27;;;20.10;99.90;;;;;;5063084;28;20587;-57
2021/07/16 07:54:03;;;;;;;8.70;7.90;;;20.30;99.90;;;;;;5062749;28;20188;-57
2021/07/16 07:56:33;;;;;;;9.00;8.23;;;20.40;99.90;;;;;;5062252;28;20177;-59
2021/07/16 07:58:59;;;;;;;9.32;8.45;;;20.50;99.90;;;;;;5061127;28;20716;-59
2021/07/16 08:01:25;;;;;;;8.50;7.80;;;20.50;99.90;;;;;;5057778;28;20424;-59
2021/07/16 08:03:51;;;;;;;7.73;7.13;;;20.70;99.90;;;;;;5062906;28;20213;-56
2021/07/16 08:06:17;;;;;;;8.23;7.57;;;20.90;99.90;;;;;;5060849;28;20280;-57
2021/07/16 08:08:44;;;;;;;8.53;7.33;;;21.10;99.90;;;;;;5051901;28;20185;-56
2021/07/16 08:11:10;;;;;;;7.60;7.00;;;21.10;99.90;;;;;;5061557;28;20530;-56
2021/07/16 08:13:35;;;;;;;7.82;7.22;;;21.30;99.90;;;;;;5062326;28;20178;-57
2021/07/16 08:16:01;;;;;;;7.10;6.40;;;21.40;99.90;;;;;;5061245;28;20199;-57
2021/07/16 08:18:28;;;;;;;7.47;6.77;;;21.70;99.90;;;;;;5057625;28;20178;-58
2021/07/16 08:20:57;;;;;;;7.83;7.03;;;22.30;99.90;;;;;;5064128;28;20744;-57
2021/07/16 08:23:23;;;;;;;9.63;8.83;;;22.90;99.90;;;;;;5061444;28;20420;-57
2021/07/16 08:25:49;;;;;;;6.90;6.40;;;23.00;99.90;;;;;;5063552;28;20424;-56
2021/07/16 08:28:14;;;;;;;8.23;6.63;;;22.80;99.90;;;;;;5063392;28;20234;-59
2021/07/16 08:30:40;;;;;;;7.00;6.30;;;22.70;99.90;;;;;;5050640;28;20459;-58
2021/07/16 08:33:06;;;;;;;7.27;6.77;;;22.40;99.90;;;;;;5065295;28;20180;-59
2021/07/16 08:35:32;;;;;;;7.60;7.00;;;22.20;99.90;;;;;;5061960;28;20196;-57
2021/07/16 08:37:59;;;;;;;8.03;7.43;;;22.10;99.90;;;;;;5052352;28;20505;-57
2021/07/16 08:40:26;;;;;;;6.93;6.43;;;22.30;99.90;;;;;;5050641;28;20220;-57
2021/07/16 08:42:52;;;;;;;11.10;7.00;;;22.20;99.90;;;;;;5059588;28;20530;-58
2021/07/16 08:45:18;;;;;;;7.03;6.32;;;22.40;99.90;;;;;;5053686;28;20530;-57
2021/07/16 08:47:44;;;;;;;6.17;5.70;;;22.80;99.90;;;;;;5054863;28;20295;-57
2021/07/16 08:50:12;;;;;;;6.40;5.90;;;22.80;99.90;;;;;;5052279;28;20468;-57
2021/07/16 08:52:39;;;;;;;6.70;6.20;;;22.70;99.90;;;;;;5053715;28;20463;-56
2021/07/16 08:55:06;;;;;;;6.53;6.03;;;22.60;99.90;;;;;;5054709;28;20447;-57
2021/07/16 08:57:32;;;;;;;6.03;5.53;;;22.70;99.90;;;;;;5057715;28;20451;-57
2021/07/16 08:59:58;;;;;;;5.60;5.20;;;22.90;99.90;;;;;;5057478;28;20467;-57
2021/07/16 09:02:29;;;;;;;7.07;6.50;;;22.70;99.90;;;;;;5050900;28;20271;-58
2021/07/16 09:05:03;;;;;;;8.57;7.87;;;22.70;99.90;;;;;;5051926;28;20440;-57
2021/07/16 09:07:28;;;;;;;5.47;4.17;;;23.20;99.90;;;;;;5054045;28;20822;-58
2021/07/16 09:10:08;;;;;;;9.93;6.50;;;24.40;99.90;;;;;;5050407;28;20670;-57
2021/07/16 09:12:35;;;;;;;5.80;5.30;;;25.00;97.60;;;;;;5057204;28;20184;-58
2021/07/16 09:15:09;;;;;;;6.17;5.67;;;25.80;97.10;;;;;;5053467;28;20479;-57
2021/07/16 09:17:36;;;;;;;5.87;5.40;;;27.30;93.90;;;;;;5066901;28;20459;-57
2021/07/16 09:20:02;;;;;;;5.27;4.90;;;26.90;92.60;;;;;;5054140;28;20502;-58
2021/07/16 09:22:34;;;;;;;6.63;6.13;;;26.80;92.70;;;;;;5056002;28;20443;-58
2021/07/16 09:25:03;;;;;;;7.33;6.73;;;26.30;93.50;;;;;;5060732;28;20943;-56
2021/07/16 09:27:35;;;;;;;6.03;5.60;;;25.30;94.90;;;;;;5061723;28;21006;-57
2021/07/16 09:30:27;;;;;;;6.17;5.63;;;26.10;94.50;;;;;;5056073;28;20482;-58
2021/07/16 09:32:54;;;;;;;6.13;5.30;;;27.60;92.50;;;;;;5063545;28;20452;-58
2021/07/16 09:35:37;;;;;;;6.73;6.23;;;28.00;90.60;;;;;;5056663;28;20505;-59
2021/07/16 09:38:16;;;;;;;7.30;6.77;;;28.20;90.30;;;;;;5056552;28;20522;-56
2021/07/16 09:40:47;;;;;;;5.37;4.97;;;28.60;87.90;;;;;;5059973;28;20594;-58
2021/07/16 09:43:12;;;;;;;5.30;4.90;;;27.40;90.50;;;;;;5062037;28;20435;-58
2021/07/16 09:45:59;;;;;;;5.70;5.20;;;27.30;90.90;;;;;;5057658;28;20443;-57
2021/07/16 09:48:35;;;;;;;6.17;5.67;;;27.00;91.30;;;;;;5057919;28;20244;-58
2021/07/16 09:51:20;;;;;;;7.10;6.40;;;26.90;91.80;;;;;;5063065;28;20541;-57
2021/07/16 09:53:50;;;;;;;6.03;5.60;;;27.00;91.40;;;;;;5059914;28;20446;-57
2021/07/16 09:56:19;;;;;;;5.70;5.10;;;27.00;91.80;;;;;;5063430;28;20523;-58
2021/07/16 09:58:45;;;;;;;5.20;4.80;;;27.90;90.50;;;;;;5059958;28;20439;-58
2021/07/16 10:01:11;;;;;;;5.10;4.80;;;29.40;86.10;;;;;;5062024;28;20540;-56
2021/07/16 10:03:39;;;;;;;5.30;4.83;;;30.70;78.70;;;;;;5058222;28;20466;-56
2021/07/16 10:06:05;;;;;;;4.10;3.80;;;31.70;76.90;;;;;;5064442;28;20443;-56
2021/07/16 10:08:33;;;;;;;3.50;3.30;;;33.40;70.00;;;;;;5055413;28;20826;-57
2021/07/16 10:11:02;;;;;;;4.60;4.30;;;34.00;65.40;;;;;;5060164;28;20451;-57
2021/07/16 10:13:34;;;;;;;4.77;4.27;;;34.60;63.30;;;;;;5064228;28;20435;-56
2021/07/16 10:16:01;;;;;;;4.27;3.87;;;34.30;60.20;;;;;;5068959;28;20541;-57
2021/07/16 10:18:28;;;;;;;3.90;3.70;;;33.90;61.20;;;;;;5059361;28;20505;-56
2021/07/16 10:20:55;;;;;;;3.73;3.53;;;32.00;65.20;;;;;;5064581;28;20503;-56
2021/07/16 10:23:22;;;;;;;4.60;4.30;;;31.60;67.70;;;;;;5058686;28;20539;-56
2021/07/16 10:25:49;;;;;;;3.67;3.40;;;31.20;67.40;;;;;;5056213;28;20441;-56
2021/07/16 10:28:47;;;;;;;3.60;3.40;;;30.30;70.50;;;;;;5060042;28;20598;-56
2021/07/16 10:31:29;;;;;;;3.40;3.20;;;30.00;72.00;;;;;;5022952;28;20775;-56
2021/07/16 10:33:56;;;;;;;3.03;2.83;;;30.70;69.80;;;;;;5057772;28;20451;-57
2021/07/16 10:36:37;;;;;;;3.77;3.37;;;30.90;68.30;;;;;;5056060;28;20451;-56
2021/07/16 10:39:04;;;;;;;2.77;2.57;;;30.80;69.10;;;;;;5059692;28;20471;-56
2021/07/16 10:41:32;;;;;;;3.30;3.10;;;30.40;69.10;;;;;;5061927;28;20449;-56
2021/07/16 10:43:57;;;;;;;3.30;3.10;;;29.70;70.20;;;;;;5055856;28;20458;-56
2021/07/16 10:46:31;;;;;;;3.00;2.80;;;29.40;71.60;;;;;;5059899;28;20463;-56
2021/07/16 10:48:56;;;;;;;2.97;2.70;;;29.20;73.90;;;;;;5062087;28;20182;-56
2021/07/16 10:51:28;;;;;;;2.30;2.20;;;29.50;72.30;;;;;;5060174;28;20509;-56
2021/07/16 10:53:56;;;;;;;2.47;2.30;;;29.20;69.70;;;;;;5068910;28;20473;-57
2021/07/16 10:56:38;;;;;;;2.23;2.03;;;28.90;72.00;;;;;;5059889;28;20452;-57
2021/07/16 10:59:04;;;;;;;2.57;2.33;;;28.80;71.60;;;;;;5057071;28;20476;-57
2021/07/16 11:01:37;;;;;;;2.40;2.30;;;29.30;71.50;;;;;;5052685;28;20455;-57
2021/07/16 11:04:07;;;;;;;2.70;2.50;;;30.40;68.70;;;;;;5062405;28;20454;-57
2021/07/16 11:06:57;;;;;;;2.47;2.27;;;31.30;65.50;;;;;;5067971;28;20466;-58
2021/07/16 11:09:46;;;;;;;3.20;3.00;;;32.60;62.40;;;;;;5058329;28;20459;-58
2021/07/16 11:12:23;;;;;;;3.07;2.87;;;33.00;60.60;;;;;;5053399;28;20530;-58
2021/07/16 11:14:49;;;;;;;3.53;2.60;;;32.90;59.70;;;;;;5068316;28;20435;-58
2021/07/16 11:17:28;;;;;;;3.20;2.90;;;32.50;61.10;;;;;;5058636;28;20451;-57
2021/07/16 11:20:11;;;;;;;3.13;2.93;;;31.80;62.50;;;;;;5059850;28;20469;-56
2021/07/16 11:22:55;;;;;;;2.80;2.60;;;30.70;65.60;;;;;;5058564;28;21023;-56
2021/07/16 11:25:21;;;;;;;2.30;2.13;;;30.50;67.00;;;;;;5062242;28;20442;-57
2021/07/16 11:27:47;;;;;;;2.77;2.57;;;31.10;67.20;;;;;;5065926;28;20979;-57
2021/07/16 11:30:13;;;;;;;2.57;2.37;;;31.70;63.90;;;;;;5053152;28;20201;-57
2021/07/16 11:32:39;;;;;;;2.43;2.33;;;31.90;62.40;;;;;;5062574;28;20219;-57
2021/07/16 11:35:06;;;;;;;2.63;2.43;;;31.00;63.60;;;;;;5056589;28;20999;-56
2021/07/16 11:37:37;;;;;;;3.03;2.57;;;30.00;66.00;;;;;;5063820;28;20227;-58
2021/07/16 11:40:19;;;;;;;2.63;2.43;;;28.80;71.50;;;;;;5060232;28;20459;-56
2021/07/16 11:43:07;;;;;;;4.00;2.50;;;29.20;71.70;;;;;;5054064;28;20477;-56
2021/07/16 11:45:43;;;;;;;3.50;2.60;;;29.20;70.50;;;;;;5058442;28;20452;-57
2021/07/16 11:48:17;;;;;;;2.33;2.13;;;28.90;71.80;;;;;;5054817;28;20476;-58
2021/07/16 11:50:47;;;;;;;3.43;2.57;;;28.50;71.80;;;;;;5058016;28;20472;-58
2021/07/16 11:53:14;;;;;;;1.97;1.87;;;28.50;73.80;;;;;;5062432;28;20430;-58
2021/07/16 11:55:41;;;;;;;3.40;2.90;;;28.70;72.50;;;;;;5054027;28;20431;-58
2021/07/16 11:58:07;;;;;;;2.23;2.10;;;28.40;73.70;;;;;;5052383;28;20460;-58
2021/07/16 12:00:37;;;;;;;1.70;1.60;;;28.10;73.60;;;;;;5064359;28;21022;-58
2021/07/16 12:03:08;;;;;;;2.50;2.20;;;27.70;75.10;;;;;;5055346;28;20181;-59
2021/07/16 12:05:46;;;;;;;3.00;2.20;;;27.10;76.90;;;;;;5062644;28;20449;-58
2021/07/16 12:08:20;;;;;;;2.17;2.07;;;27.10;77.70;;;;;;5062526;28;20494;-57
2021/07/16 12:10:45;;;;;;;1.80;1.67;;;27.40;77.50;;;;;;5054703;28;20742;-56
2021/07/16 12:13:11;;;;;;;1.80;1.70;;;27.40;75.60;;;;;;5056588;28;20907;-57
2021/07/16 12:15:37;;;;;;;2.80;2.03;;;27.40;75.40;;;;;;5061927;28;20447;-56
2021/07/16 12:18:04;;;;;;;2.50;2.30;;;27.40;76.30;;;;;;5064025;28;20948;-57
2021/07/16 12:20:36;;;;;;;2.37;2.17;;;27.40;76.50;;;;;;5055687;28;20201;-56
2021/07/16 12:23:08;;;;;;;2.30;2.10;;;27.40;76.20;;;;;;5055282;28;20436;-57
2021/07/16 12:25:35;;;;;;;1.90;1.80;;;27.50;76.90;;;;;;5055423;28;20435;-57
2021/07/16 12:28:03;;;;;;;2.47;2.13;;;27.50;75.40;;;;;;5061459;28;21026;-57
2021/07/16 12:30:29;;;;;;;2.73;2.53;;;27.20;77.20;;;;;;5058066;28;20777;-57
2021/07/16 12:33:00;;;;;;;3.10;2.90;;;27.20;77.60;;;;;;5062796;28;20999;-56
2021/07/16 12:35:26;;;;;;;2.00;1.90;;;27.10;78.20;;;;;;5057679;28;20189;-57
2021/07/16 12:37:59;;;;;;;2.20;2.10;;;27.00;77.10;;;;;;5057804;28;20517;-56
2021/07/16 12:40:25;;;;;;;2.50;2.30;;;26.70;78.10;;;;;;5060423;28;20904;-57
2021/07/16 12:43:05;;;;;;;3.83;2.23;;;26.80;79.00;;;;;;5061009;28;21016;-56
2021/07/16 12:45:42;;;;;;;2.60;2.40;;;26.50;81.00;;;;;;5055931;28;20550;-56
2021/07/16 12:48:20;;;;;;;2.27;2.13;;;26.20;83.10;;;;;;5062668;28;20539;-58
2021/07/16 12:50:47;;;;;;;2.30;2.20;;;25.90;83.30;;;;;;5062176;28;20572;-56
2021/07/16 12:53:27;;;;;;;2.97;2.77;;;25.70;83.90;;;;;;5056239;28;20441;-57